sensor_id;sensor_type;location;lat;lon;timestamp;pressure;altitude;pressure_sealevel;temperature;humidity
78671;BME280;68277;52.724;6.516;2023-08-12T00:01:55;101661.53;;;19.50;86.61
78671;BME280;68277;52.724;6.516;2023-08-12T00:04:22;101693.53;;;19.55;87.91
78671;BME280;68277;52.724;6.516;2023-08-12T00:06:51;101678.50;;;19.51;87.82
78671;BME280;68277;52.724;6.516;2023-08-12T00:09:17;101755.50;;;19.89;88.90
78671;BME280;68277;52.724;6.516;2023-08-12T00:11:43;101693.09;;;19.45;89.82
78671;BME280;68277;52.724;6.516;2023-08-12T00:14:09;101720.34;;;19.56;89.98
78671;BME280;68277;52.724;6.516;2023-08-12T00:16:34;101772.84;;;19.82;90.61
78671;BME280;68277;52.724;6.516;2023-08-12T00:19:00;101694.91;;;19.45;89.66
78671;BME280;68277;52.724;6.516;2023-08-12T00:21:26;101649.81;;;19.12;89.81
78671;BME280;68277;52.724;6.516;2023-08-12T00:23:52;101750.56;;;19.80;89.55
78671;BME280;68277;52.724;6.516;2023-08-12T00:26:17;101755.84;;;19.82;88.72
78671;BME280;68277;52.724;6.516;2023-08-12T00:28:43;101647.53;;;19.24;89.45
78671;BME280;68277;52.724;6.516;2023-08-12T00:31:09;101614.53;;;19.01;90.26
78671;BME280;68277;52.724;6.516;2023-08-12T00:33:34;101617.97;;;19.05;90.74
78671;BME280;68277;52.724;6.516;2023-08-12T00:36:00;101686.31;;;19.37;90.62
78671;BME280;68277;52.724;6.516;2023-08-12T00:38:28;101723.72;;;19.60;90.29
78671;BME280;68277;52.724;6.516;2023-08-12T00:40:54;101707.25;;;19.49;94.37
78671;BME280;68277;52.724;6.516;2023-08-12T00:43:19;101739.50;;;19.67;92.38
78671;BME280;68277;52.724;6.516;2023-08-12T00:45:45;101651.47;;;19.15;91.54
78671;BME280;68277;52.724;6.516;2023-08-12T00:48:14;101743.94;;;19.68;90.61
78671;BME280;68277;52.724;6.516;2023-08-12T00:50:44;101679.41;;;19.31;90.62
78671;BME280;68277;52.724;6.516;2023-08-12T00:53:12;101679.53;;;19.28;89.64
78671;BME280;68277;52.724;6.516;2023-08-12T00:55:38;101646.31;;;19.10;90.04
78671;BME280;68277;52.724;6.516;2023-08-12T00:58:04;101670.81;;;19.23;90.95
78671;BME280;68277;52.724;6.516;2023-08-12T01:00:31;101746.69;;;19.67;92.37
78671;BME280;68277;52.724;6.516;2023-08-12T01:02:58;101615.09;;;18.89;91.54
78671;BME280;68277;52.724;6.516;2023-08-12T01:05:25;101682.13;;;19.30;90.66
78671;BME280;68277;52.724;6.516;2023-08-12T01:07:51;101657.84;;;19.12;92.76
78671;BME280;68277;52.724;6.516;2023-08-12T01:10:20;101658.53;;;19.18;92.60
78671;BME280;68277;52.724;6.516;2023-08-12T01:12:58;101722.13;;;19.56;95.12
78671;BME280;68277;52.724;6.516;2023-08-12T01:15:26;101655.94;;;19.16;95.05
78671;BME280;68277;52.724;6.516;2023-08-12T01:17:53;101578.97;;;18.78;91.11
78671;BME280;68277;52.724;6.516;2023-08-12T01:20:20;101670.31;;;19.34;90.77
78671;BME280;68277;52.724;6.516;2023-08-12T01:22:56;101595.25;;;18.93;89.59
78671;BME280;68277;52.724;6.516;2023-08-12T01:25:24;101711.94;;;19.64;91.71
78671;BME280;68277;52.724;6.516;2023-08-12T01:27:51;101661.41;;;19.33;90.08
78671;BME280;68277;52.724;6.516;2023-08-12T01:30:18;101650.88;;;19.29;96.58
78671;BME280;68277;52.724;6.516;2023-08-12T01:33:41;101631.56;;;19.21;90.54
78671;BME280;68277;52.724;6.516;2023-08-12T01:38:39;101565.63;;;18.76;88.96
78671;BME280;68277;52.724;6.516;2023-08-12T01:41:10;101589.16;;;18.90;89.23
78671;BME280;68277;52.724;6.516;2023-08-12T01:43:38;101575.16;;;18.83;89.44
78671;BME280;68277;52.724;6.516;2023-08-12T01:46:03;101651.94;;;19.25;89.92
78671;BME280;68277;52.724;6.516;2023-08-12T01:48:29;101646.44;;;19.28;89.11
78671;BME280;68277;52.724;6.516;2023-08-12T01:50:55;101607.72;;;18.94;89.61
78671;BME280;68277;52.724;6.516;2023-08-12T01:53:22;101579.03;;;18.76;92.40
78671;BME280;68277;52.724;6.516;2023-08-12T01:55:49;101575.88;;;18.67;93.38
78671;BME280;68277;52.724;6.516;2023-08-12T01:58:16;101682.94;;;19.32;92.36
78671;BME280;68277;52.724;6.516;2023-08-12T02:00:42;101630.84;;;18.97;94.57
78671;BME280;68277;52.724;6.516;2023-08-12T02:03:08;101637.75;;;19.02;92.89
78671;BME280;68277;52.724;6.516;2023-08-12T02:05:34;101569.66;;;18.66;93.20
78671;BME280;68277;52.724;6.516;2023-08-12T02:08:04;101576.81;;;18.66;94.81
78671;BME280;68277;52.724;6.516;2023-08-12T02:10:30;101645.03;;;19.00;95.38
78671;BME280;68277;52.724;6.516;2023-08-12T02:12:58;101614.09;;;18.92;92.80
78671;BME280;68277;52.724;6.516;2023-08-12T02:15:24;101619.31;;;18.95;92.45
78671;BME280;68277;52.724;6.516;2023-08-12T02:17:49;101606.38;;;18.84;95.74
78671;BME280;68277;52.724;6.516;2023-08-12T02:20:15;101581.03;;;18.71;95.84
78671;BME280;68277;52.724;6.516;2023-08-12T02:22:41;101600.00;;;18.87;94.31
78671;BME280;68277;52.724;6.516;2023-08-12T02:25:07;101610.69;;;18.88;95.07
78671;BME280;68277;52.724;6.516;2023-08-12T02:27:32;101567.72;;;18.70;94.91
78671;BME280;68277;52.724;6.516;2023-08-12T02:29:58;101608.84;;;18.89;95.27
78671;BME280;68277;52.724;6.516;2023-08-12T02:32:28;101619.13;;;18.99;95.78
78671;BME280;68277;52.724;6.516;2023-08-12T02:34:53;101556.44;;;18.62;94.74
78671;BME280;68277;52.724;6.516;2023-08-12T02:37:19;101664.34;;;19.27;93.95
78671;BME280;68277;52.724;6.516;2023-08-12T02:39:45;101614.53;;;19.01;93.77
78671;BME280;68277;52.724;6.516;2023-08-12T02:42:11;101535.09;;;18.60;94.88
78671;BME280;68277;52.724;6.516;2023-08-12T02:44:36;101584.78;;;18.87;92.54
78671;BME280;68277;52.724;6.516;2023-08-12T02:47:02;101545.53;;;18.66;93.62
78671;BME280;68277;52.724;6.516;2023-08-12T02:49:28;101516.78;;;18.50;94.61
78671;BME280;68277;52.724;6.516;2023-08-12T02:51:53;101587.22;;;18.93;95.10
78671;BME280;68277;52.724;6.516;2023-08-12T02:54:19;101591.81;;;18.90;95.78
78671;BME280;68277;52.724;6.516;2023-08-12T02:56:45;101587.56;;;18.86;94.04
78671;BME280;68277;52.724;6.516;2023-08-12T02:59:10;101515.97;;;18.48;95.47
78671;BME280;68277;52.724;6.516;2023-08-12T03:01:36;101621.16;;;19.13;94.60
78671;BME280;68277;52.724;6.516;2023-08-12T03:04:02;101567.34;;;18.77;96.77
78671;BME280;68277;52.724;6.516;2023-08-12T03:06:28;101586.53;;;18.88;98.48
78671;BME280;68277;52.724;6.516;2023-08-12T03:08:53;101519.63;;;18.45;98.76
78671;BME280;68277;52.724;6.516;2023-08-12T03:11:19;101608.59;;;18.95;97.04
78671;BME280;68277;52.724;6.516;2023-08-12T03:13:45;101586.88;;;18.81;98.21
78671;BME280;68277;52.724;6.516;2023-08-12T03:16:14;101611.16;;;18.98;100.00
78671;BME280;68277;52.724;6.516;2023-08-12T03:18:42;101573.56;;;18.79;99.09
78671;BME280;68277;52.724;6.516;2023-08-12T03:21:09;101575.41;;;18.77;97.91
78671;BME280;68277;52.724;6.516;2023-08-12T03:23:35;101617.69;;;19.11;100.00
78671;BME280;68277;52.724;6.516;2023-08-12T03:26:02;101531.44;;;18.61;100.00
78671;BME280;68277;52.724;6.516;2023-08-12T03:28:31;101488.41;;;18.44;96.44
78671;BME280;68277;52.724;6.516;2023-08-12T03:31:04;101583.09;;;19.05;94.84
78671;BME280;68277;52.724;6.516;2023-08-12T03:33:32;101489.50;;;18.60;94.44
78671;BME280;68277;52.724;6.516;2023-08-12T03:35:59;101593.06;;;19.22;93.26
78671;BME280;68277;52.724;6.516;2023-08-12T03:38:26;101515.59;;;18.75;93.62
78671;BME280;68277;52.724;6.516;2023-08-12T03:40:52;101479.78;;;18.58;93.27
78671;BME280;68277;52.724;6.516;2023-08-12T03:43:23;101517.94;;;18.83;95.88
78671;BME280;68277;52.724;6.516;2023-08-12T03:45:49;101584.06;;;19.23;95.34
78671;BME280;68277;52.724;6.516;2023-08-12T03:48:18;101519.63;;;18.85;93.57
78671;BME280;68277;52.724;6.516;2023-08-12T03:50:43;101470.94;;;18.56;94.80
78671;BME280;68277;52.724;6.516;2023-08-12T03:53:11;101544.00;;;18.99;93.82
78671;BME280;68277;52.724;6.516;2023-08-12T03:55:38;101471.53;;;18.62;93.93
78671;BME280;68277;52.724;6.516;2023-08-12T03:58:05;101584.72;;;19.28;96.50
78671;BME280;68277;52.724;6.516;2023-08-12T04:00:31;101550.81;;;19.06;93.79
78671;BME280;68277;52.724;6.516;2023-08-12T04:03:02;101479.50;;;18.64;93.86
78671;BME280;68277;52.724;6.516;2023-08-12T04:05:30;101478.41;;;18.68;93.20
78671;BME280;68277;52.724;6.516;2023-08-12T04:07:59;101520.88;;;18.97;94.97
78671;BME280;68277;52.724;6.516;2023-08-12T04:10:27;101580.28;;;19.27;94.80
78671;BME280;68277;52.724;6.516;2023-08-12T04:12:53;101510.56;;;18.88;94.27
78671;BME280;68277;52.724;6.516;2023-08-12T04:15:19;101577.59;;;19.27;94.24
78671;BME280;68277;52.724;6.516;2023-08-12T04:17:45;101511.22;;;18.93;95.24
78671;BME280;68277;52.724;6.516;2023-08-12T04:20:10;101510.34;;;18.92;93.78
78671;BME280;68277;52.724;6.516;2023-08-12T04:22:37;101534.81;;;19.05;94.91
78671;BME280;68277;52.724;6.516;2023-08-12T04:25:03;101541.75;;;19.09;98.01
78671;BME280;68277;52.724;6.516;2023-08-12T04:27:28;101495.69;;;18.81;97.66
78671;BME280;68277;52.724;6.516;2023-08-12T04:29:55;101525.34;;;18.96;98.01
78671;BME280;68277;52.724;6.516;2023-08-12T04:32:21;101453.03;;;18.56;98.74
78671;BME280;68277;52.724;6.516;2023-08-12T04:34:47;101563.53;;;19.22;97.49
78671;BME280;68277;52.724;6.516;2023-08-12T04:37:14;101509.47;;;18.92;100.00
78671;BME280;68277;52.724;6.516;2023-08-12T04:39:42;101485.06;;;18.79;98.31
78671;BME280;68277;52.724;6.516;2023-08-12T04:42:09;101451.09;;;18.60;98.10
78671;BME280;68277;52.724;6.516;2023-08-12T04:44:35;101491.00;;;18.86;99.62
78671;BME280;68277;52.724;6.516;2023-08-12T04:47:01;101508.41;;;18.96;99.24
78671;BME280;68277;52.724;6.516;2023-08-12T04:49:28;101430.66;;;18.57;100.00
78671;BME280;68277;52.724;6.516;2023-08-12T04:51:54;101461.19;;;18.73;99.61
78671;BME280;68277;52.724;6.516;2023-08-12T04:54:20;101469.22;;;18.73;98.49
78671;BME280;68277;52.724;6.516;2023-08-12T04:56:47;101431.78;;;18.52;98.30
78671;BME280;68277;52.724;6.516;2023-08-12T04:59:13;101422.16;;;18.48;99.39
78671;BME280;68277;52.724;6.516;2023-08-12T05:01:39;101486.06;;;18.77;99.40
78671;BME280;68277;52.724;6.516;2023-08-12T05:04:05;101504.06;;;18.93;99.65
78671;BME280;68277;52.724;6.516;2023-08-12T05:06:31;101546.84;;;19.15;98.40
78671;BME280;68277;52.724;6.516;2023-08-12T05:08:57;101477.00;;;18.79;100.00
78671;BME280;68277;52.724;6.516;2023-08-12T05:11:24;101536.72;;;19.22;100.00
78671;BME280;68277;52.724;6.516;2023-08-12T05:13:50;101524.31;;;19.19;99.55
78671;BME280;68277;52.724;6.516;2023-08-12T05:16:18;101491.72;;;19.08;97.30
78671;BME280;68277;52.724;6.516;2023-08-12T05:18:45;101499.19;;;19.20;96.26
78671;BME280;68277;52.724;6.516;2023-08-12T05:21:11;101473.16;;;19.22;96.41
78671;BME280;68277;52.724;6.516;2023-08-12T05:23:37;101505.66;;;19.53;96.60
78671;BME280;68277;52.724;6.516;2023-08-12T05:26:03;101408.84;;;19.02;95.14
78671;BME280;68277;52.724;6.516;2023-08-12T05:28:28;101451.25;;;19.31;95.20
78671;BME280;68277;52.724;6.516;2023-08-12T05:31:02;101421.78;;;19.30;95.63
78671;BME280;68277;52.724;6.516;2023-08-12T05:33:30;101500.59;;;19.83;95.39
78671;BME280;68277;52.724;6.516;2023-08-12T05:35:57;101449.91;;;19.58;96.05
78671;BME280;68277;52.724;6.516;2023-08-12T05:38:22;101459.66;;;19.78;95.09
78671;BME280;68277;52.724;6.516;2023-08-12T05:40:48;101439.59;;;19.68;94.64
78671;BME280;68277;52.724;6.516;2023-08-12T05:43:19;101443.00;;;19.89;95.92
78671;BME280;68277;52.724;6.516;2023-08-12T05:45:45;101485.06;;;20.24;95.36
78671;BME280;68277;52.724;6.516;2023-08-12T05:48:11;101446.78;;;20.19;99.76
78671;BME280;68277;52.724;6.516;2023-08-12T05:50:37;101381.44;;;20.01;94.81
78671;BME280;68277;52.724;6.516;2023-08-12T05:53:02;101456.00;;;20.80;95.96
78671;BME280;68277;52.724;6.516;2023-08-12T05:55:33;101437.66;;;21.51;92.47
78671;BME280;68277;52.724;6.516;2023-08-12T05:58:00;101389.03;;;21.98;89.31
78671;BME280;68277;52.724;6.516;2023-08-12T06:00:25;101440.94;;;22.59;87.52
78671;BME280;68277;52.724;6.516;2023-08-12T06:02:54;101481.22;;;22.48;88.89
78671;BME280;68277;52.724;6.516;2023-08-12T06:05:20;101489.47;;;22.01;92.33
78671;BME280;68277;52.724;6.516;2023-08-12T06:07:45;101501.59;;;21.63;93.16
78671;BME280;68277;52.724;6.516;2023-08-12T06:10:11;101447.91;;;21.13;94.21
78671;BME280;68277;52.724;6.516;2023-08-12T06:12:37;101381.34;;;20.53;94.71
78671;BME280;68277;52.724;6.516;2023-08-12T06:15:03;101418.44;;;20.63;95.70
78671;BME280;68277;52.724;6.516;2023-08-12T06:17:28;101364.22;;;20.21;95.38
78671;BME280;68277;52.724;6.516;2023-08-12T06:19:54;101426.59;;;20.44;96.32
78671;BME280;68277;52.724;6.516;2023-08-12T06:22:26;101417.38;;;20.33;97.32
78671;BME280;68277;52.724;6.516;2023-08-12T06:24:51;101449.88;;;20.45;99.03
78671;BME280;68277;52.724;6.516;2023-08-12T06:27:17;101457.06;;;20.45;99.90
78671;BME280;68277;52.724;6.516;2023-08-12T06:29:44;101444.72;;;20.41;100.00
78671;BME280;68277;52.724;6.516;2023-08-12T06:32:10;101425.19;;;20.37;98.52
78671;BME280;68277;52.724;6.516;2023-08-12T06:34:38;101378.88;;;20.15;98.80
78671;BME280;68277;52.724;6.516;2023-08-12T06:37:04;101442.25;;;20.54;98.64
78671;BME280;68277;52.724;6.516;2023-08-12T06:39:29;101404.19;;;20.28;97.68
78671;BME280;68277;52.724;6.516;2023-08-12T06:42:15;101375.31;;;20.15;98.23
78671;BME280;68277;52.724;6.516;2023-08-12T06:44:45;101436.50;;;20.44;97.80
78671;BME280;68277;52.724;6.516;2023-08-12T06:47:13;101419.53;;;20.26;99.02
78671;BME280;68277;52.724;6.516;2023-08-12T06:49:39;101488.56;;;20.59;99.30
78671;BME280;68277;52.724;6.516;2023-08-12T06:52:06;101367.63;;;19.92;100.00
78671;BME280;68277;52.724;6.516;2023-08-12T06:54:32;101410.50;;;20.10;98.92
78671;BME280;68277;52.724;6.516;2023-08-12T06:56:58;101417.28;;;20.17;99.90
78671;BME280;68277;52.724;6.516;2023-08-12T06:59:30;101449.72;;;20.31;99.32
78671;BME280;68277;52.724;6.516;2023-08-12T07:01:56;101472.16;;;20.48;99.10
78671;BME280;68277;52.724;6.516;2023-08-12T07:04:22;101458.09;;;20.42;98.87
78671;BME280;68277;52.724;6.516;2023-08-12T07:06:48;101455.09;;;20.31;99.72
78671;BME280;68277;52.724;6.516;2023-08-12T07:09:14;101446.72;;;20.20;99.33
78671;BME280;68277;52.724;6.516;2023-08-12T07:11:49;101477.09;;;20.39;100.00
78671;BME280;68277;52.724;6.516;2023-08-12T07:14:15;101358.22;;;19.66;99.38
78671;BME280;68277;52.724;6.516;2023-08-12T07:16:43;101413.75;;;20.00;99.74
78671;BME280;68277;52.724;6.516;2023-08-12T07:19:09;101405.13;;;19.93;100.00
78671;BME280;68277;52.724;6.516;2023-08-12T07:21:34;101435.81;;;20.06;100.00
78671;BME280;68277;52.724;6.516;2023-08-12T07:24:00;101426.09;;;20.04;99.05
78671;BME280;68277;52.724;6.516;2023-08-12T07:26:25;101459.56;;;20.14;99.63
78671;BME280;68277;52.724;6.516;2023-08-12T07:28:51;101413.38;;;19.90;100.00
78671;BME280;68277;52.724;6.516;2023-08-12T07:31:17;101432.34;;;20.04;100.00
78671;BME280;68277;52.724;6.516;2023-08-12T07:33:43;101443.00;;;20.06;100.00
78671;BME280;68277;52.724;6.516;2023-08-12T07:36:09;101422.84;;;19.97;100.00
78671;BME280;68277;52.724;6.516;2023-08-12T07:38:34;101410.69;;;19.90;100.00
78671;BME280;68277;52.724;6.516;2023-08-12T07:41:00;101415.88;;;19.93;100.00
78671;BME280;68277;52.724;6.516;2023-08-12T07:43:26;101409.63;;;19.93;100.00
78671;BME280;68277;52.724;6.516;2023-08-12T07:45:52;101444.31;;;20.14;100.00
78671;BME280;68277;52.724;6.516;2023-08-12T07:48:19;101361.06;;;19.63;100.00
78671;BME280;68277;52.724;6.516;2023-08-12T07:50:44;101429.81;;;20.01;100.00
78671;BME280;68277;52.724;6.516;2023-08-12T07:53:10;101457.69;;;20.16;100.00
78671;BME280;68277;52.724;6.516;2023-08-12T07:55:36;101434.06;;;19.88;100.00
78671;BME280;68277;52.724;6.516;2023-08-12T07:58:01;101444.66;;;19.91;100.00
78671;BME280;68277;52.724;6.516;2023-08-12T08:00:27;101478.16;;;20.01;100.00
78671;BME280;68277;52.724;6.516;2023-08-12T08:02:52;101448.59;;;19.84;100.00
78671;BME280;68277;52.724;6.516;2023-08-12T08:05:18;101428.38;;;19.77;100.00
78671;BME280;68277;52.724;6.516;2023-08-12T08:07:43;101426.97;;;19.87;100.00
78671;BME280;68277;52.724;6.516;2023-08-12T08:10:09;101414.00;;;19.78;100.00
78671;BME280;68277;52.724;6.516;2023-08-12T08:12:35;101417.38;;;19.82;100.00
78671;BME280;68277;52.724;6.516;2023-08-12T08:15:01;101393.28;;;19.63;100.00
78671;BME280;68277;52.724;6.516;2023-08-12T08:17:28;101434.47;;;19.81;100.00
78671;BME280;68277;52.724;6.516;2023-08-12T08:19:54;101406.41;;;19.52;100.00
78671;BME280;68277;52.724;6.516;2023-08-12T08:22:19;101431.22;;;19.57;100.00
78671;BME280;68277;52.724;6.516;2023-08-12T08:24:45;101451.44;;;19.64;100.00
78671;BME280;68277;52.724;6.516;2023-08-12T08:27:10;101412.63;;;19.34;100.00
78671;BME280;68277;52.724;6.516;2023-08-12T08:29:36;101452.69;;;19.57;100.00
78671;BME280;68277;52.724;6.516;2023-08-12T08:32:01;101430.06;;;19.44;100.00
78671;BME280;68277;52.724;6.516;2023-08-12T08:34:27;101454.50;;;19.56;100.00
78671;BME280;68277;52.724;6.516;2023-08-12T08:36:52;101430.19;;;19.41;100.00
78671;BME280;68277;52.724;6.516;2023-08-12T08:39:18;101445.25;;;19.45;100.00
78671;BME280;68277;52.724;6.516;2023-08-12T08:41:45;101398.81;;;19.24;100.00
78671;BME280;68277;52.724;6.516;2023-08-12T08:44:13;101409.09;;;19.33;100.00
78671;BME280;68277;52.724;6.516;2023-08-12T08:46:41;101365.38;;;19.12;100.00
78671;BME280;68277;52.724;6.516;2023-08-12T08:49:07;101382.22;;;19.16;100.00
78671;BME280;68277;52.724;6.516;2023-08-12T08:51:34;101398.75;;;19.26;100.00
78671;BME280;68277;52.724;6.516;2023-08-12T08:54:02;101393.97;;;19.13;100.00
78671;BME280;68277;52.724;6.516;2023-08-12T08:56:31;101410.63;;;19.20;100.00
78671;BME280;68277;52.724;6.516;2023-08-12T08:58:57;101401.56;;;19.23;100.00
78671;BME280;68277;52.724;6.516;2023-08-12T09:01:22;101391.19;;;19.15;100.00
78671;BME280;68277;52.724;6.516;2023-08-12T09:03:51;101392.50;;;19.25;100.00
78671;BME280;68277;52.724;6.516;2023-08-12T09:06:20;101404.56;;;19.34;100.00
78671;BME280;68277;52.724;6.516;2023-08-12T09:08:47;101394.31;;;19.25;100.00
78671;BME280;68277;52.724;6.516;2023-08-12T09:11:15;101369.81;;;19.13;100.00
78671;BME280;68277;52.724;6.516;2023-08-12T09:13:42;101362.13;;;19.06;100.00
78671;BME280;68277;52.724;6.516;2023-08-12T09:16:08;101378.00;;;19.10;100.00
78671;BME280;68277;52.724;6.516;2023-08-12T09:18:34;101425.78;;;19.40;100.00
78671;BME280;68277;52.724;6.516;2023-08-12T09:21:00;101377.22;;;19.08;100.00
78671;BME280;68277;52.724;6.516;2023-08-12T09:23:26;101409.84;;;19.37;100.00
78671;BME280;68277;52.724;6.516;2023-08-12T09:25:51;101402.75;;;19.36;100.00
78671;BME280;68277;52.724;6.516;2023-08-12T09:28:17;101389.72;;;19.27;100.00
78671;BME280;68277;52.724;6.516;2023-08-12T09:30:43;101386.91;;;19.30;100.00
78671;BME280;68277;52.724;6.516;2023-08-12T09:33:15;101388.41;;;19.35;100.00
78671;BME280;68277;52.724;6.516;2023-08-12T09:35:41;101404.97;;;19.45;100.00
